createdAt,value
2022-08-31T00:00:00.071Z,5.50
2022-08-31T00:10:00.123Z,7.20
2022-08-31T00:20:00.132Z,7.00
2022-08-31T00:30:00.129Z,10.80
2022-08-31T00:40:00.175Z,7.50
2022-08-31T00:50:00.143Z,11.90
2022-08-31T01:00:01.008Z,10.50
2022-08-31T01:10:00.113Z,9.00
2022-08-31T01:20:00.145Z,11.20
2022-08-31T01:30:00.103Z,8.30
2022-08-31T01:40:00.180Z,7.30
2022-08-31T01:50:00.125Z,12.20
2022-08-31T02:00:00.104Z,7.40
2022-08-31T02:10:00.079Z,9.70
2022-08-31T02:20:00.096Z,11.10
2022-08-31T02:30:00.098Z,8.00
2022-08-31T02:40:00.155Z,5.80
2022-08-31T02:50:00.160Z,9.30
2022-08-31T03:00:00.082Z,10.00
2022-08-31T03:10:00.081Z,7.60
2022-08-31T03:20:00.108Z,8.30
2022-08-31T03:30:00.099Z,5.70
2022-08-31T03:40:00.222Z,8.00
2022-08-31T03:50:00.127Z,8.10
2022-08-31T04:00:00.094Z,5.80
2022-08-31T04:10:00.092Z,7.80
2022-08-31T04:20:00.131Z,5.70
2022-08-31T04:30:00.141Z,5.40
2022-08-31T04:40:00.081Z,8.70
2022-08-31T04:50:00.119Z,9.00
2022-08-31T05:00:00.117Z,7.70
2022-08-31T05:10:00.128Z,11.50
2022-08-31T05:20:00.144Z,13.70
2022-08-31T05:30:00.113Z,14.80
2022-08-31T05:40:00.160Z,12.80
2022-08-31T05:50:00.106Z,9.00
2022-08-31T06:00:00.107Z,6.40
2022-08-31T06:10:00.139Z,19.00
2022-08-31T06:20:00.127Z,7.20
2022-08-31T06:30:00.105Z,9.50
2022-08-31T06:40:00.185Z,9.00
2022-08-31T06:50:00.118Z,11.80
2022-08-31T07:00:00.298Z,11.20
2022-08-31T07:10:00.186Z,14.20
2022-08-31T07:20:00.161Z,20.90
2022-08-31T07:30:00.103Z,24.50
2022-08-31T07:40:03.495Z,16.20
2022-08-31T07:50:00.138Z,19.10
2022-08-31T08:00:00.114Z,25.30
2022-08-31T08:10:00.136Z,18.50
2022-08-31T08:20:00.156Z,18.90
2022-08-31T08:30:00.116Z,27.70
2022-08-31T08:40:00.172Z,28.50
2022-08-31T08:50:00.133Z,34.00
2022-08-31T09:00:00.151Z,32.80
2022-08-31T09:10:00.147Z,57.80
2022-08-31T09:20:00.143Z,48.90
2022-08-31T09:30:00.150Z,79.60
2022-08-31T09:40:02.267Z,54.50
2022-08-31T09:50:00.124Z,79.60
2022-08-31T10:00:00.080Z,258.00
2022-08-31T10:10:00.149Z,526.20
2022-08-31T10:20:00.120Z,433.00
2022-08-31T10:30:00.143Z,139.30
2022-08-31T10:40:00.182Z,137.20
2022-08-31T10:50:00.149Z,96.10
2022-08-31T11:00:00.116Z,566.30
2022-08-31T11:10:00.131Z,730.00
2022-08-31T11:20:00.185Z,748.60
2022-08-31T11:30:00.119Z,704.90
2022-08-31T11:40:00.203Z,704.00
2022-08-31T11:50:00.145Z,723.10
2022-08-31T12:00:00.295Z,683.80
2022-08-31T12:10:00.125Z,685.20
2022-08-31T12:20:01.473Z,512.00
2022-08-31T12:30:00.390Z,685.60
2022-08-31T12:40:00.148Z,605.60
2022-08-31T12:50:00.129Z,587.90
2022-08-31T13:00:01.825Z,704.70
2022-08-31T13:10:00.140Z,726.90
2022-08-31T13:20:00.122Z,751.50
2022-08-31T13:30:00.135Z,765.20
2022-08-31T13:40:00.233Z,729.40
2022-08-31T13:50:00.122Z,688.30
2022-08-31T14:00:00.133Z,665.10
2022-08-31T14:10:00.230Z,671.40
2022-08-31T14:20:00.244Z,681.80
2022-08-31T14:30:00.165Z,678.80
2022-08-31T14:40:05.757Z,638.00
2022-08-31T14:50:00.118Z,575.10
2022-08-31T15:00:00.128Z,602.50
2022-08-31T15:10:00.174Z,605.30
2022-08-31T15:20:00.114Z,623.70
2022-08-31T15:30:02.774Z,551.50
2022-08-31T15:40:00.268Z,613.80
2022-08-31T15:50:01.183Z,623.40
2022-08-31T16:00:00.250Z,650.10
2022-08-31T16:10:00.258Z,589.10
2022-08-31T16:20:00.100Z,590.40
2022-08-31T16:30:00.092Z,509.40
2022-08-31T16:40:00.272Z,581.50
2022-08-31T16:50:00.117Z,542.80
2022-08-31T17:00:00.132Z,612.50
2022-08-31T17:10:00.289Z,535.40
2022-08-31T17:20:00.108Z,532.80
2022-08-31T17:30:00.089Z,521.00
2022-08-31T17:40:00.120Z,504.00
2022-08-31T17:50:00.063Z,274.30
2022-08-31T18:00:00.093Z,218.30
2022-08-31T18:10:01.550Z,195.20
2022-08-31T18:20:00.138Z,187.30
2022-08-31T18:30:00.118Z,171.10
2022-08-31T18:40:01.632Z,207.00
2022-08-31T18:50:00.097Z,131.60
2022-08-31T19:00:00.117Z,136.00
2022-08-31T19:10:00.110Z,174.60
2022-08-31T19:20:03.530Z,462.00
2022-08-31T19:30:00.159Z,75.70
2022-08-31T19:40:00.115Z,60.70
2022-08-31T19:50:00.099Z,301.50
2022-08-31T20:00:00.141Z,34.50
2022-08-31T20:10:00.131Z,65.20
2022-08-31T20:20:00.135Z,81.30
2022-08-31T20:30:00.145Z,39.00
2022-08-31T20:40:00.218Z,51.80
2022-08-31T20:50:00.148Z,53.20
2022-08-31T21:00:00.126Z,50.30
2022-08-31T21:10:00.127Z,38.20
2022-08-31T21:20:00.108Z,49.10
2022-08-31T21:30:00.139Z,30.80
2022-08-31T21:40:00.124Z,51.30
2022-08-31T21:50:00.123Z,36.90
2022-08-31T22:00:00.160Z,40.60
2022-08-31T22:10:00.122Z,36.00
2022-08-31T22:20:00.109Z,39.90
2022-08-31T22:30:00.116Z,29.00
2022-08-31T22:40:00.375Z,29.80
2022-08-31T22:50:00.121Z,31.40
2022-08-31T23:00:00.115Z,35.10
2022-08-31T23:10:00.110Z,26.30
2022-08-31T23:20:00.125Z,45.20
2022-08-31T23:30:01.264Z,27.70
2022-08-31T23:40:00.147Z,31.50
2022-08-31T23:50:01.308Z,29.50
